createdAt,value
2016-06-15T00:00:51.581Z,15.85
2016-06-15T00:01:48.663Z,15.81
2016-06-15T00:02:48.697Z,15.8
2016-06-15T00:03:48.794Z,15.81
2016-06-15T00:04:49.328Z,15.78
2016-06-15T00:05:51.503Z,15.8
2016-06-15T00:06:51.443Z,15.81
2016-06-15T00:07:54.243Z,15.81
2016-06-15T00:08:48.356Z,15.84
2016-06-15T00:09:48.343Z,15.76
2016-06-15T00:10:51.238Z,15.9
2016-06-15T00:11:48.412Z,15.92
2016-06-15T00:12:48.150Z,15.96
2016-06-15T00:13:48.105Z,15.9
2016-06-15T00:14:48.265Z,15.91
2016-06-15T00:15:48.018Z,16.02
2016-06-15T00:16:47.959Z,15.92
2016-06-15T00:17:47.931Z,15.96
2016-06-15T00:18:47.934Z,16
2016-06-15T00:19:47.843Z,16.02
2016-06-15T00:20:47.783Z,16.06
2016-06-15T00:21:47.756Z,16.02
2016-06-15T00:22:47.680Z,16.02
2016-06-15T00:23:47.481Z,16.06
2016-06-15T00:24:47.592Z,16.03
2016-06-15T00:25:50.768Z,16.06
2016-06-15T00:26:50.708Z,16.02
2016-06-15T00:27:47.477Z,16.05
2016-06-15T00:28:50.417Z,16.02
2016-06-15T00:29:53.374Z,16.06
2016-06-15T00:30:56.345Z,16.06
2016-06-15T00:31:47.474Z,16.05
2016-06-15T00:32:50.273Z,16.03
2016-06-15T00:33:56.011Z,16.06
2016-06-15T00:34:47.139Z,16.06
2016-06-15T00:35:47.126Z,16.06
2016-06-15T00:36:47.036Z,16.02
2016-06-15T00:37:49.992Z,16.16
2016-06-15T00:38:46.776Z,16.13
2016-06-15T00:39:46.905Z,16.1
2016-06-15T00:40:50.048Z,16.13
2016-06-15T00:41:46.816Z,16.25
2016-06-15T00:42:49.789Z,16.21
2016-06-15T00:43:46.698Z,16.21
2016-06-15T00:44:46.685Z,16.24
2016-06-15T00:45:46.626Z,16.28
2016-06-15T00:46:49.566Z,16.12
2016-06-15T00:47:46.507Z,16.12
2016-06-15T00:48:47.354Z,16.06
2016-06-15T00:49:46.638Z,16.03
2016-06-15T00:50:46.375Z,15.99
2016-06-15T00:51:46.348Z,15.96
2016-06-15T00:52:46.272Z,15.92
2016-06-15T00:53:46.245Z,15.9
2016-06-15T00:54:52.185Z,15.8
2016-06-15T00:55:46.454Z,15.83
2016-06-15T00:56:52.097Z,15.84
2016-06-15T00:57:46.147Z,15.8
2016-06-15T00:58:46.025Z,15.85
2016-06-15T00:59:46.002Z,15.78
2016-06-15T01:00:46.229Z,15.85
2016-06-15T01:01:55.081Z,15.81
2016-06-15T01:02:46.198Z,15.81
2016-06-15T01:03:49.219Z,15.84
2016-06-15T01:04:46.094Z,15.78
2016-06-15T01:05:52.282Z,15.9
2016-06-15T01:06:46.048Z,15.94
2016-06-15T01:07:48.845Z,15.94
2016-06-15T01:08:45.776Z,15.85
2016-06-15T01:09:45.738Z,15.87
2016-06-15T01:10:45.714Z,15.9
2016-06-15T01:11:45.645Z,15.9
2016-06-15T01:12:45.605Z,15.83
2016-06-15T01:13:48.783Z,15.92
2016-06-15T01:14:45.521Z,15.87
2016-06-15T01:15:45.464Z,15.84
2016-06-15T01:16:48.437Z,15.98
2016-06-15T01:17:48.395Z,15.91
2016-06-15T01:18:45.337Z,15.83
2016-06-15T01:19:49.449Z,15.8
2016-06-15T01:20:45.250Z,15.76
2016-06-15T01:21:48.207Z,15.8
2016-06-15T01:22:45.008Z,15.84
2016-06-15T01:23:45.089Z,15.69
2016-06-15T01:24:48.077Z,15.75
2016-06-15T01:25:54.064Z,15.69
2016-06-15T01:26:44.989Z,15.65
2016-06-15T01:27:50.931Z,15.62
2016-06-15T01:28:48.104Z,15.65
2016-06-15T01:29:44.858Z,15.54
2016-06-15T01:30:45.110Z,15.54
2016-06-15T01:31:44.724Z,15.65
2016-06-15T01:32:44.695Z,15.65
2016-06-15T01:33:47.652Z,15.65
2016-06-15T01:34:44.591Z,15.57
2016-06-15T01:35:44.861Z,15.55
2016-06-15T01:36:44.519Z,15.57
2016-06-15T01:37:44.445Z,15.48
2016-06-15T01:38:44.417Z,15.43
2016-06-15T01:39:47.388Z,15.37
2016-06-15T01:40:44.313Z,15.47
2016-06-15T01:41:44.254Z,15.51
2016-06-15T01:42:44.257Z,15.5
2016-06-15T01:43:44.150Z,15.43
2016-06-15T01:44:44.108Z,15.43
2016-06-15T01:45:50.094Z,15.48
2016-06-15T01:46:44.019Z,15.52
2016-06-15T01:47:44.022Z,15.54
2016-06-15T01:48:46.995Z,15.51
2016-06-15T01:49:43.904Z,15.6
2016-06-15T01:50:43.688Z,15.57
2016-06-15T01:51:43.785Z,15.57
2016-06-15T01:52:43.741Z,15.51
2016-06-15T01:53:43.947Z,15.41
2016-06-15T01:54:43.653Z,15.47
2016-06-15T01:55:46.594Z,15.36
2016-06-15T01:56:43.737Z,15.45
2016-06-15T01:57:43.506Z,15.39
2016-06-15T01:58:49.681Z,15.39
2016-06-15T01:59:43.419Z,15.35
2016-06-15T02:00:46.360Z,15.36
2016-06-15T02:01:46.847Z,15.27
2016-06-15T02:02:49.303Z,15.33
2016-06-15T02:03:49.275Z,15.3
2016-06-15T02:04:46.403Z,15.32
2016-06-15T02:05:43.531Z,15.39
2016-06-15T02:06:46.065Z,15.36
2016-06-15T02:07:43.037Z,15.35
2016-06-15T02:08:42.993Z,15.33
2016-06-15T02:09:52.184Z,15.32
2016-06-15T02:10:45.890Z,15.26
2016-06-15T02:11:48.831Z,15.33
2016-06-15T02:12:42.990Z,15.39
2016-06-15T02:13:42.743Z,15.36
2016-06-15T02:14:45.715Z,15.45
2016-06-15T02:15:48.671Z,15.27
2016-06-15T02:16:42.659Z,15.29
2016-06-15T02:17:48.584Z,15.43
2016-06-15T02:18:42.805Z,15.41
2016-06-15T02:19:45.496Z,15.44
2016-06-15T02:20:42.983Z,15.43
2016-06-15T02:21:45.564Z,15.33
2016-06-15T02:22:42.334Z,15.32
2016-06-15T02:23:42.289Z,15.33
2016-06-15T02:24:42.246Z,15.36
2016-06-15T02:25:45.170Z,15.3
2016-06-15T02:26:45.126Z,15.26
2016-06-15T02:27:42.067Z,15.33
2016-06-15T02:28:45.055Z,15.26
2016-06-15T02:29:41.995Z,15.32
2016-06-15T02:30:41.936Z,15.29
2016-06-15T02:31:47.907Z,15.35
2016-06-15T02:32:44.848Z,15.39
2016-06-15T02:33:41.804Z,15.37
2016-06-15T02:34:41.745Z,15.39
2016-06-15T02:35:42.014Z,15.35
2016-06-15T02:36:44.673Z,15.29
2016-06-15T02:37:47.660Z,15.29
2016-06-15T02:38:44.569Z,15.33
2016-06-15T02:39:41.510Z,15.39
2016-06-15T02:40:41.482Z,15.45
2016-06-15T02:41:44.423Z,15.43
2016-06-15T02:42:44.378Z,15.41
2016-06-15T02:43:41.320Z,15.39
2016-06-15T02:44:44.479Z,15.43
2016-06-15T02:45:41.232Z,15.33
2016-06-15T02:46:44.188Z,15.35
2016-06-15T02:47:41.144Z,15.48
2016-06-15T02:48:41.085Z,15.39
2016-06-15T02:49:41.025Z,15.29
2016-06-15T02:50:41.061Z,15.41
2016-06-15T02:51:43.953Z,15.32
2016-06-15T02:52:40.895Z,15.36
2016-06-15T02:53:40.850Z,15.36
2016-06-15T02:54:43.838Z,15.3
2016-06-15T02:55:40.622Z,15.3
2016-06-15T02:56:40.938Z,15.26
2016-06-15T02:57:40.518Z,15.23
2016-06-15T02:58:40.616Z,15.19
2016-06-15T02:59:43.571Z,15.25
2016-06-15T03:00:40.528Z,15.23
2016-06-15T03:01:40.469Z,15.29
2016-06-15T03:02:40.457Z,15.32
2016-06-15T03:03:40.459Z,15.26
2016-06-15T03:04:40.306Z,15.15
2016-06-15T03:05:41.621Z,15.22
2016-06-15T03:06:40.360Z,15.12
2016-06-15T03:07:43.206Z,15.15
2016-06-15T03:08:43.147Z,15.19
2016-06-15T03:09:46.322Z,15.22
2016-06-15T03:10:40.042Z,15.17
2016-06-15T03:11:39.859Z,15.18
2016-06-15T03:12:42.956Z,15.15
2016-06-15T03:13:45.912Z,15.14
2016-06-15T03:14:46.055Z,15.29
2016-06-15T03:15:42.808Z,15.29
2016-06-15T03:16:45.780Z,15.3
2016-06-15T03:17:39.925Z,15.26
2016-06-15T03:18:39.989Z,15.36
2016-06-15T03:19:39.461Z,15.29
2016-06-15T03:20:39.917Z,15.32
2016-06-15T03:21:42.592Z,15.33
2016-06-15T03:22:42.486Z,15.35
2016-06-15T03:23:39.427Z,15.43
2016-06-15T03:24:39.429Z,15.35
2016-06-15T03:25:39.339Z,15.45
2016-06-15T03:26:42.483Z,15.36
2016-06-15T03:27:39.236Z,15.41
2016-06-15T03:28:39.020Z,15.36
2016-06-15T03:29:42.148Z,15.37
2016-06-15T03:30:42.104Z,15.3
2016-06-15T03:31:39.045Z,15.39
2016-06-15T03:32:39.001Z,15.47
2016-06-15T03:33:38.942Z,15.43
2016-06-15T03:34:41.914Z,15.3
2016-06-15T03:35:38.869Z,15.39
2016-06-15T03:36:38.795Z,15.43
2016-06-15T03:37:41.767Z,15.37
2016-06-15T03:38:38.723Z,15.36
2016-06-15T03:39:38.695Z,15.39
2016-06-15T03:40:41.620Z,15.32
2016-06-15T03:41:41.576Z,15.3
2016-06-15T03:42:38.516Z,15.36
2016-06-15T03:43:38.582Z,15.32
2016-06-15T03:44:38.429Z,15.25
2016-06-15T03:45:38.386Z,15.3
2016-06-15T03:46:38.341Z,15.36
2016-06-15T03:47:38.282Z,15.39
2016-06-15T03:48:41.644Z,15.39
2016-06-15T03:49:41.195Z,15.33
2016-06-15T03:50:44.165Z,15.32
2016-06-15T03:51:41.201Z,15.29
2016-06-15T03:52:38.046Z,15.3
2016-06-15T03:53:41.004Z,15.26
2016-06-15T03:54:37.834Z,15.33
2016-06-15T03:55:40.900Z,15.36
2016-06-15T03:56:37.856Z,15.36
2016-06-15T03:57:37.812Z,15.36
2016-06-15T03:58:37.770Z,15.35
2016-06-15T03:59:37.725Z,15.35
2016-06-15T04:00:37.712Z,15.33
2016-06-15T04:01:37.622Z,15.43
2016-06-15T04:02:37.593Z,15.39
2016-06-15T04:03:37.566Z,15.45
2016-06-15T04:04:37.552Z,15.5
2016-06-15T04:05:37.884Z,15.55
2016-06-15T04:06:40.481Z,15.65
2016-06-15T04:07:37.187Z,15.66
2016-06-15T04:08:37.300Z,15.69
2016-06-15T04:09:37.240Z,15.73
2016-06-15T04:10:40.227Z,15.76
2016-06-15T04:11:37.152Z,15.73
2016-06-15T04:12:37.124Z,15.81
2016-06-15T04:13:37.065Z,15.81
2016-06-15T04:14:36.833Z,15.84
2016-06-15T04:15:36.806Z,15.84
2016-06-15T04:16:36.917Z,15.78
2016-06-15T04:17:36.874Z,15.73
2016-06-15T04:18:36.815Z,15.78
2016-06-15T04:19:36.740Z,15.87
2016-06-15T04:20:36.446Z,15.91
2016-06-15T04:21:36.699Z,15.99
2016-06-15T04:22:36.827Z,15.99
2016-06-15T04:23:36.580Z,15.87
2016-06-15T04:24:36.537Z,15.94
2016-06-15T04:25:36.492Z,15.98
2016-06-15T04:26:36.465Z,15.84
2016-06-15T04:27:36.404Z,15.8
2016-06-15T04:28:36.346Z,15.83
2016-06-15T04:29:36.302Z,15.78
2016-06-15T04:30:36.258Z,15.8
2016-06-15T04:31:36.214Z,15.78
2016-06-15T04:32:39.170Z,15.84
2016-06-15T04:33:36.111Z,15.84
2016-06-15T04:34:36.083Z,15.84
2016-06-15T04:35:36.664Z,15.84
2016-06-15T04:36:38.979Z,15.84
2016-06-15T04:37:35.920Z,15.87
2016-06-15T04:38:36.392Z,15.85
2016-06-15T04:39:35.816Z,15.9
2016-06-15T04:40:38.789Z,15.91
2016-06-15T04:41:39.151Z,15.87
2016-06-15T04:42:35.716Z,15.87
2016-06-15T04:43:35.657Z,15.78
2016-06-15T04:44:35.597Z,15.81
2016-06-15T04:45:35.553Z,15.88
2016-06-15T04:46:35.510Z,15.88
2016-06-15T04:47:38.465Z,15.83
2016-06-15T04:48:38.407Z,15.91
2016-06-15T04:49:35.363Z,15.91
2016-06-15T04:50:35.304Z,15.92
2016-06-15T04:51:38.682Z,15.94
2016-06-15T04:52:35.419Z,15.91
2016-06-15T04:53:35.016Z,15.94
2016-06-15T04:54:35.112Z,15.9
2016-06-15T04:55:35.287Z,15.88
2016-06-15T04:56:35.040Z,15.9
2016-06-15T04:57:34.997Z,15.9
2016-06-15T04:58:38.562Z,15.88
2016-06-15T04:59:34.894Z,15.98
2016-06-15T05:00:34.849Z,15.99
2016-06-15T05:01:35.009Z,15.98
2016-06-15T05:02:34.950Z,16.02
2016-06-15T05:03:34.703Z,15.98
2016-06-15T05:04:34.675Z,16.02
2016-06-15T05:05:34.693Z,16
2016-06-15T05:06:34.665Z,16.02
2016-06-15T05:07:38.027Z,16.03
2016-06-15T05:08:34.469Z,16.05
2016-06-15T05:09:34.424Z,16.03
2016-06-15T05:10:37.647Z,16.02
2016-06-15T05:11:37.321Z,16.06
2016-06-15T05:12:34.278Z,16.09
2016-06-15T05:13:37.250Z,16.12
2016-06-15T05:14:37.190Z,16.13
2016-06-15T05:15:34.146Z,16.17
2016-06-15T05:16:40.118Z,16.25
2016-06-15T05:17:37.043Z,16.37
2016-06-15T05:18:33.999Z,16.37
2016-06-15T05:19:33.956Z,16.47
2016-06-15T05:20:36.927Z,16.47
2016-06-15T05:21:34.196Z,16.49
2016-06-15T05:22:36.823Z,16.36
2016-06-15T05:23:33.765Z,16.49
2016-06-15T05:24:33.720Z,16.4
2016-06-15T05:25:33.662Z,16.5
2016-06-15T05:26:33.632Z,16.49
2016-06-15T05:27:33.652Z,16.51
2016-06-15T05:28:33.546Z,16.61
2016-06-15T05:29:33.689Z,16.47
2016-06-15T05:30:36.442Z,16.46
2016-06-15T05:31:33.398Z,16.47
2016-06-15T05:32:33.339Z,16.4
2016-06-15T05:33:33.295Z,16.41
2016-06-15T05:34:33.251Z,16.29
2016-06-15T05:35:36.411Z,16.34
2016-06-15T05:36:33.163Z,16.39
2016-06-15T05:37:33.119Z,16.44
2016-06-15T05:38:36.076Z,16.44
2016-06-15T05:39:33.219Z,16.49
2016-06-15T05:40:33.363Z,16.4
2016-06-15T05:41:32.914Z,16.47
2016-06-15T05:42:32.917Z,16.44
2016-06-15T05:43:36.044Z,16.41
2016-06-15T05:44:35.798Z,16.47
2016-06-15T05:45:35.738Z,16.47
2016-06-15T05:46:32.742Z,16.46
2016-06-15T05:47:32.650Z,16.41
2016-06-15T05:48:33.014Z,16.47
2016-06-15T05:49:32.547Z,16.41
2016-06-15T05:50:32.519Z,16.41
2016-06-15T05:51:36.022Z,16.41
2016-06-15T05:52:35.416Z,16.39
2016-06-15T05:53:35.575Z,16.32
2016-06-15T05:54:32.313Z,16.34
2016-06-15T05:55:32.284Z,16.36
2016-06-15T05:56:32.225Z,16.32
2016-06-15T05:57:32.681Z,16.26
2016-06-15T05:58:32.153Z,16.21
2016-06-15T05:59:32.094Z,16.25
2016-06-15T06:00:32.050Z,16.21
2016-06-15T06:01:32.053Z,16.06
2016-06-15T06:02:31.932Z,16
2016-06-15T06:03:31.887Z,15.87
2016-06-15T06:04:31.844Z,15.91
2016-06-15T06:05:32.002Z,15.91
2016-06-15T06:06:32.599Z,15.96
2016-06-15T06:07:40.775Z,15.96
2016-06-15T06:08:34.747Z,15.9
2016-06-15T06:09:34.686Z,15.98
2016-06-15T06:10:31.409Z,15.9
2016-06-15T06:11:31.521Z,15.91
2016-06-15T06:12:31.321Z,15.94
2016-06-15T06:13:34.435Z,16
2016-06-15T06:14:34.390Z,16.05
2016-06-15T06:15:31.331Z,15.94
2016-06-15T06:16:31.349Z,16.03
2016-06-15T06:17:31.134Z,15.91
2016-06-15T06:18:31.245Z,15.88
2016-06-15T06:19:31.140Z,15.99
2016-06-15T06:20:31.096Z,15.94
2016-06-15T06:21:34.521Z,16.03
2016-06-15T06:22:31.008Z,16.06
2016-06-15T06:23:31.011Z,16.16
2016-06-15T06:24:30.905Z,16.28
2016-06-15T06:25:31.064Z,16.32
2016-06-15T06:26:30.817Z,16.32
2016-06-15T06:27:30.789Z,16.32
2016-06-15T06:28:30.917Z,16.37
2016-06-15T06:29:30.702Z,16.31
2016-06-15T06:30:36.689Z,16.34
2016-06-15T06:31:30.615Z,16.43
2016-06-15T06:32:30.538Z,16.36
2016-06-15T06:33:30.558Z,16.39
2016-06-15T06:34:30.436Z,16.47
2016-06-15T06:35:30.408Z,16.58
2016-06-15T06:36:30.551Z,16.54
2016-06-15T06:37:30.303Z,16.58
2016-06-15T06:38:30.245Z,16.69
2016-06-15T06:39:33.217Z,16.68
2016-06-15T06:40:30.157Z,16.74
2016-06-15T06:41:33.098Z,16.66
2016-06-15T06:42:30.085Z,16.82
2016-06-15T06:43:30.041Z,16.79
2016-06-15T06:44:32.732Z,16.69
2016-06-15T06:45:33.267Z,16.69
2016-06-15T06:46:32.910Z,16.72
2016-06-15T06:47:35.867Z,16.66
2016-06-15T06:48:29.791Z,16.76
2016-06-15T06:49:29.748Z,16.8
2016-06-15T06:50:29.907Z,16.68
2016-06-15T06:51:30.082Z,16.73
2016-06-15T06:52:29.819Z,16.68
2016-06-15T06:53:32.557Z,16.66
2016-06-15T06:54:29.341Z,16.72
2016-06-15T06:55:32.454Z,16.79
2016-06-15T06:56:32.425Z,16.66
2016-06-15T06:57:32.241Z,16.8
2016-06-15T06:58:32.384Z,16.84
2016-06-15T06:59:29.513Z,16.76
2016-06-15T07:00:29.235Z,16.77
2016-06-15T07:01:29.238Z,16.79
2016-06-15T07:02:31.975Z,16.66
2016-06-15T07:03:32.088Z,16.65
2016-06-15T07:04:32.450Z,16.62
2016-06-15T07:05:32.015Z,16.65
2016-06-15T07:06:29.487Z,16.65
2016-06-15T07:07:29.131Z,16.68
2016-06-15T07:08:29.071Z,16.69
2016-06-15T07:09:28.809Z,16.62
2016-06-15T07:10:28.765Z,16.61
2016-06-15T07:11:28.878Z,16.57
2016-06-15T07:12:28.677Z,16.47
2016-06-15T07:13:28.619Z,16.46
2016-06-15T07:14:28.574Z,16.43
2016-06-15T07:15:28.546Z,16.49
2016-06-15T07:16:31.503Z,16.55
2016-06-15T07:17:28.162Z,16.5
2016-06-15T07:18:28.430Z,16.51
2016-06-15T07:19:28.355Z,16.51
2016-06-15T07:20:28.186Z,16.55
2016-06-15T07:21:31.159Z,16.55
2016-06-15T07:22:28.208Z,16.47
2016-06-15T07:23:28.164Z,16.51
2016-06-15T07:24:28.136Z,16.51
2016-06-15T07:25:28.062Z,16.46
2016-06-15T07:26:34.548Z,16.49
2016-06-15T07:27:27.974Z,16.46
2016-06-15T07:28:27.977Z,16.47
2016-06-15T07:29:27.949Z,16.46
2016-06-15T07:30:27.858Z,16.43
2016-06-15T07:31:27.814Z,16.41
2016-06-15T07:32:33.786Z,16.39
2016-06-15T07:33:28.336Z,16.49
2016-06-15T07:34:27.683Z,16.46
2016-06-15T07:35:27.623Z,16.5
2016-06-15T07:36:30.798Z,16.47
2016-06-15T07:37:27.598Z,16.41
2016-06-15T07:38:27.491Z,16.39
2016-06-15T07:39:30.729Z,16.37
2016-06-15T07:40:30.780Z,16.34
2016-06-15T07:41:27.330Z,16.44
2016-06-15T07:42:30.316Z,16.37
2016-06-15T07:43:27.398Z,16.39
2016-06-15T07:44:27.479Z,16.32
2016-06-15T07:45:27.388Z,16.24
2016-06-15T07:46:27.141Z,16.21
2016-06-15T07:47:27.269Z,16.24
2016-06-15T07:48:30.007Z,16.16
2016-06-15T07:49:29.963Z,16.17
2016-06-15T07:50:26.966Z,16.28
2016-06-15T07:51:27.578Z,16.31
2016-06-15T07:52:30.067Z,16.32
2016-06-15T07:53:26.772Z,16.29
2016-06-15T07:54:26.947Z,16.41
2016-06-15T07:55:26.716Z,16.41
2016-06-15T07:56:26.829Z,16.47
2016-06-15T07:57:29.597Z,16.54
2016-06-15T07:58:26.521Z,16.57
2016-06-15T07:59:26.478Z,16.58
2016-06-15T08:00:26.528Z,16.59
2016-06-15T08:01:26.406Z,16.65
2016-06-15T08:02:26.565Z,16.64
2016-06-15T08:03:29.506Z,16.68
2016-06-15T08:04:26.275Z,16.68
2016-06-15T08:05:26.246Z,16.77
2016-06-15T08:06:27.000Z,16.86
2016-06-15T08:07:29.159Z,16.87
2016-06-15T08:08:26.100Z,17.07
2016-06-15T08:09:26.119Z,17.09
2016-06-15T08:10:29.074Z,17.04
2016-06-15T08:11:26.015Z,17.04
2016-06-15T08:12:25.877Z,17.04
2016-06-15T08:13:25.928Z,17.16
2016-06-15T08:14:25.806Z,17.07
2016-06-15T08:15:25.824Z,17.09
2016-06-15T08:16:25.719Z,17.13
2016-06-15T08:17:25.674Z,17.24
2016-06-15T08:18:25.614Z,17.28
2016-06-15T08:19:25.680Z,17.38
2016-06-15T08:20:28.542Z,17.34
2016-06-15T08:21:28.406Z,17.39
2016-06-15T08:22:29.580Z,17.53
2016-06-15T08:23:35.771Z,17.65
2016-06-15T08:24:28.430Z,17.73
2016-06-15T08:25:31.324Z,17.9
2016-06-15T08:26:29.014Z,17.9
2016-06-15T08:27:31.424Z,18.02
2016-06-15T08:28:28.036Z,18.13
2016-06-15T08:29:24.961Z,18.18
2016-06-15T08:30:34.120Z,18.23
2016-06-15T08:31:25.233Z,18.23
2016-06-15T08:32:24.971Z,18.27
2016-06-15T08:33:24.926Z,18.24
2016-06-15T08:34:24.930Z,18.15
2016-06-15T08:35:25.074Z,18.12
2016-06-15T08:36:28.124Z,18.06
2016-06-15T08:37:25.111Z,18.06
2016-06-15T08:38:24.754Z,18.09
2016-06-15T08:39:28.476Z,17.97
2016-06-15T08:40:24.604Z,17.98
2016-06-15T08:41:24.592Z,18.09
2016-06-15T08:42:24.548Z,18.09
2016-06-15T08:43:24.691Z,18.08
2016-06-15T08:44:24.429Z,18.23
2016-06-15T08:45:24.370Z,18.21
2016-06-15T08:46:24.341Z,18.26
2016-06-15T08:47:27.329Z,18.37
2016-06-15T08:48:24.081Z,18.41
2016-06-15T08:49:24.209Z,18.37
2016-06-15T08:50:24.057Z,18.31
2016-06-15T08:51:24.059Z,18.24
2016-06-15T08:52:24.266Z,18.21
2016-06-15T08:53:27.034Z,18.24
2016-06-15T08:54:23.991Z,18.23
2016-06-15T08:55:23.978Z,18.13
2016-06-15T08:56:23.919Z,18.16
2016-06-15T08:57:23.875Z,18.18
2016-06-15T08:58:23.784Z,18.05
2016-06-15T08:59:26.772Z,18.06
2016-06-15T09:00:27.962Z,18.05
2016-06-15T09:01:31.232Z,18.21
2016-06-15T09:02:23.622Z,18.19
2016-06-15T09:03:23.563Z,18.23
2016-06-15T09:04:23.503Z,18.39
2016-06-15T09:05:23.475Z,18.33
2016-06-15T09:06:24.041Z,18.28
2016-06-15T09:07:23.403Z,18.34
2016-06-15T09:08:23.422Z,18.23
2016-06-15T09:09:24.254Z,18.21
2016-06-15T09:10:23.365Z,18.27
2016-06-15T09:11:26.216Z,18.28
2016-06-15T09:12:26.015Z,18.21
2016-06-15T09:13:34.601Z,18.24
2016-06-15T09:14:23.091Z,18.19
2016-06-15T09:15:23.030Z,18.12
2016-06-15T09:16:26.237Z,18.18
2016-06-15T09:17:23.255Z,18.09
2016-06-15T09:18:22.947Z,18.02
2016-06-15T09:19:23.246Z,17.98
2016-06-15T09:20:23.046Z,17.79
2016-06-15T09:21:26.050Z,17.6
2016-06-15T09:22:22.739Z,17.56
2016-06-15T09:23:22.868Z,17.38
2016-06-15T09:24:22.620Z,17.2
2016-06-15T09:25:22.765Z,17.19
2016-06-15T09:26:22.501Z,17.02
2016-06-15T09:27:22.489Z,16.82
2016-06-15T09:28:22.617Z,16.69
2016-06-15T09:29:22.255Z,16.59
2016-06-15T09:30:22.352Z,16.55
2016-06-15T09:31:22.339Z,16.5
2016-06-15T09:32:22.250Z,16.34
2016-06-15T09:33:22.284Z,16.25
2016-06-15T09:34:22.145Z,16.16
2016-06-15T09:35:22.634Z,16.05
2016-06-15T09:36:22.074Z,16.03
2016-06-15T09:37:25.342Z,15.99
2016-06-15T09:38:21.970Z,15.87
2016-06-15T09:39:24.770Z,15.84
2016-06-15T09:40:24.727Z,15.8
2016-06-15T09:41:22.027Z,15.72
2016-06-15T09:42:22.077Z,15.76
2016-06-15T09:43:21.970Z,15.76
2016-06-15T09:44:21.708Z,15.78
2016-06-15T09:45:21.852Z,15.7
2016-06-15T09:46:21.620Z,15.69
2016-06-15T09:47:24.748Z,15.69
2016-06-15T09:48:24.438Z,15.72
2016-06-15T09:49:21.536Z,15.69
2016-06-15T09:50:21.476Z,15.73
2016-06-15T09:51:24.386Z,15.75
2016-06-15T09:52:24.139Z,15.73
2016-06-15T09:53:24.142Z,15.73
2016-06-15T09:54:24.238Z,15.75
2016-06-15T09:55:21.210Z,15.78
2016-06-15T09:56:24.745Z,15.73
2016-06-15T09:57:21.357Z,15.76
2016-06-15T09:58:21.047Z,15.81
2016-06-15T09:59:23.989Z,15.75
2016-06-15T10:00:23.944Z,15.8
2016-06-15T10:01:21.010Z,15.83
2016-06-15T10:02:20.981Z,15.88
2016-06-15T10:03:20.812Z,15.91
2016-06-15T10:04:23.772Z,15.91
2016-06-15T10:05:20.612Z,15.91
2016-06-15T10:06:21.045Z,15.99
2016-06-15T10:07:20.777Z,16.05
2016-06-15T10:08:20.725Z,16.02
2016-06-15T10:09:20.944Z,16.03
2016-06-15T10:10:20.680Z,16.17
2016-06-15T10:11:23.821Z,16.21
2016-06-15T10:12:20.621Z,16.29
2016-06-15T10:13:20.592Z,16.26
2016-06-15T10:14:20.402Z,16.36
2016-06-15T10:15:20.488Z,16.49
2016-06-15T10:16:31.699Z,16.37
2016-06-15T10:17:20.427Z,16.47
2016-06-15T10:18:25.825Z,16.49
2016-06-15T10:19:20.332Z,16.49
2016-06-15T10:20:23.509Z,16.58
2016-06-15T10:21:23.249Z,16.54
2016-06-15T10:22:20.160Z,16.68
2016-06-15T10:23:20.227Z,16.64
2016-06-15T10:24:20.122Z,16.72
2016-06-15T10:25:26.282Z,16.66
2016-06-15T10:26:20.224Z,16.82
2016-06-15T10:27:20.023Z,16.89
2016-06-15T10:28:20.167Z,16.92
2016-06-15T10:29:20.421Z,16.99
2016-06-15T10:30:19.830Z,17.01
2016-06-15T10:31:20.052Z,16.98
2016-06-15T10:32:19.759Z,17.1
2016-06-15T10:33:19.684Z,17.14
2016-06-15T10:34:19.876Z,17.05
2016-06-15T10:35:21.676Z,17.05
2016-06-15T10:36:26.475Z,17.23
2016-06-15T10:37:34.901Z,17.23
2016-06-15T10:38:37.138Z,17.22
2016-06-15T10:39:34.375Z,17.19
2016-06-15T10:40:45.629Z,17.22
2016-06-15T10:42:00.538Z,17.23
2016-06-15T10:42:40.229Z,17.27
2016-06-15T10:43:25.904Z,17.3
2016-06-15T10:44:28.704Z,17.42
2016-06-15T10:45:38.707Z,17.44
2016-06-15T10:46:54.804Z,17.65
2016-06-15T10:47:36.056Z,17.66
2016-06-15T10:48:57.919Z,17.73
2016-06-15T10:49:50.751Z,17.9
2016-06-15T10:51:06.363Z,17.98
2016-06-15T10:52:11.744Z,18.05
2016-06-15T10:53:33.622Z,18.16
2016-06-15T10:55:18.191Z,18.24
2016-06-15T10:55:57.284Z,18.21
2016-06-15T10:56:57.053Z,18.26
2016-06-15T10:57:57.150Z,18.23
2016-06-15T10:58:56.950Z,18.16
2016-06-15T10:59:59.891Z,18.19
2016-06-15T11:01:00.035Z,18.21
2016-06-15T11:01:56.788Z,18.24
2016-06-15T11:03:00.291Z,18.26
2016-06-15T11:03:56.700Z,18.3
2016-06-15T11:04:57.172Z,18.21
2016-06-15T11:05:56.706Z,18.26
2016-06-15T11:06:59.804Z,18.23
2016-06-15T11:07:56.525Z,18.21
2016-06-15T11:08:56.481Z,18.23
2016-06-15T11:09:56.516Z,18.18
2016-06-15T11:10:56.393Z,18.36
2016-06-15T11:11:56.725Z,18.31
2016-06-15T11:12:56.306Z,18.48
2016-06-15T11:13:59.606Z,18.43
2016-06-15T11:14:56.249Z,18.6
2016-06-15T11:15:56.003Z,18.64
2016-06-15T11:16:56.084Z,18.66
2016-06-15T11:17:56.618Z,18.81
2016-06-15T11:18:56.028Z,18.81
2016-06-15T11:19:55.968Z,18.88
2016-06-15T11:20:56.003Z,18.86
2016-06-15T11:21:56.303Z,19
2016-06-15T11:22:55.899Z,18.96
2016-06-15T11:23:56.105Z,19.07
2016-06-15T11:24:55.593Z,19.15
2016-06-15T11:25:55.798Z,19.17
2016-06-15T11:26:55.630Z,19.2
2016-06-15T11:27:55.602Z,19.29
2016-06-15T11:28:58.635Z,19.37
2016-06-15T11:29:55.546Z,19.27
2016-06-15T11:30:55.471Z,19.23
2016-06-15T11:31:55.458Z,19.2
2016-06-15T11:32:55.367Z,19.15
2016-06-15T11:33:55.355Z,18.96
2016-06-15T11:34:58.295Z,18.97
2016-06-15T11:35:55.252Z,18.92
2016-06-15T11:36:56.099Z,18.83
2016-06-15T11:37:55.851Z,18.81
2016-06-15T11:38:55.323Z,18.64
2016-06-15T11:39:55.076Z,18.68
2016-06-15T11:40:55.001Z,18.53
2016-06-15T11:41:54.973Z,18.51
2016-06-15T11:42:55.133Z,18.46
2016-06-15T11:43:54.886Z,18.36
2016-06-15T11:44:55.060Z,18.3
2016-06-15T11:45:54.798Z,18.24
2016-06-15T11:46:54.802Z,18.28
2016-06-15T11:47:54.726Z,18.37
2016-06-15T11:48:54.854Z,18.31
2016-06-15T11:49:54.623Z,18.36
2016-06-15T11:50:54.578Z,18.28
2016-06-15T11:51:54.582Z,18.19
2016-06-15T11:53:00.632Z,18.18
2016-06-15T11:53:54.448Z,18.13
2016-06-15T11:54:57.591Z,18.13
2016-06-15T11:55:54.718Z,18.23
2016-06-15T11:56:57.347Z,18.16
2016-06-15T11:57:54.382Z,18.12
2016-06-15T11:58:54.369Z,18.34
2016-06-15T11:59:54.186Z,18.42
2016-06-15T12:00:54.422Z,18.57
2016-06-15T12:01:53.926Z,18.71
2016-06-15T12:02:54.132Z,18.83
2016-06-15T12:03:54.182Z,18.92
2016-06-15T12:04:53.966Z,19.17
2016-06-15T12:05:53.906Z,19.29
2016-06-15T12:06:53.847Z,19.38
2016-06-15T12:07:54.521Z,19.55
2016-06-15T12:08:53.775Z,19.7
2016-06-15T12:09:53.934Z,19.64
2016-06-15T12:10:53.687Z,19.82
2016-06-15T12:11:53.659Z,19.92
2016-06-15T12:12:53.600Z,19.94
2016-06-15T12:13:53.540Z,19.94
2016-06-15T12:14:53.716Z,20.1
2016-06-15T12:15:53.969Z,20.02
2016-06-15T12:16:53.487Z,20.03
2016-06-15T12:17:53.365Z,20.1
2016-06-15T12:18:53.322Z,20.08
2016-06-15T12:19:53.903Z,20.18
2016-06-15T12:20:53.328Z,20.15
2016-06-15T12:21:53.299Z,20.19
2016-06-15T12:22:53.333Z,20.24
2016-06-15T12:23:52.946Z,20.44
2016-06-15T12:24:53.043Z,20.37
2016-06-15T12:25:52.999Z,20.33
2016-06-15T12:26:55.814Z,20.42
2016-06-15T12:27:52.942Z,20.29
2016-06-15T12:28:52.992Z,20.14
2016-06-15T12:29:56.418Z,20.08
2016-06-15T12:30:52.984Z,19.97
2016-06-15T12:31:53.002Z,19.87
2016-06-15T12:32:52.723Z,19.82
2016-06-15T12:33:52.648Z,19.71
2016-06-15T12:34:52.621Z,19.72
2016-06-15T12:35:52.577Z,19.57
2016-06-15T12:36:52.516Z,19.47
2016-06-15T12:37:52.864Z,19.48
2016-06-15T12:38:52.476Z,19.32
2016-06-15T12:39:52.417Z,19.2
2016-06-15T12:40:52.390Z,19.08
2016-06-15T12:41:52.142Z,18.89
2016-06-15T12:42:52.254Z,18.73
2016-06-15T12:43:52.038Z,18.66
2016-06-15T12:44:52.152Z,18.7
2016-06-15T12:45:52.233Z,18.58
2016-06-15T12:46:55.080Z,18.26
2016-06-15T12:47:51.879Z,18.13
2016-06-15T12:48:51.975Z,17.87
2016-06-15T12:49:51.964Z,17.41
2016-06-15T12:50:54.967Z,16.89
2016-06-15T12:51:51.954Z,16.65
2016-06-15T12:52:51.910Z,16.49
2016-06-15T12:53:51.757Z,16.22
2016-06-15T12:54:51.714Z,16.03
2016-06-15T12:55:55.138Z,15.83
2016-06-15T12:56:51.610Z,15.73